sensor_id;sensor_type;location;lat;lon;timestamp;pressure;altitude;pressure_sealevel;temperature;humidity
46045;BME280;31781;54.094;13.428;2023-04-01T00:00:44;99957.69;;;7.38;73.37
46045;BME280;31781;54.094;13.428;2023-04-01T00:02:46;99963.94;;;7.39;72.35
46045;BME280;31781;54.094;13.428;2023-04-01T00:04:48;99957.88;;;7.37;73.01
46045;BME280;31781;54.094;13.428;2023-04-01T00:06:50;99966.00;;;7.37;72.52
46045;BME280;31781;54.094;13.428;2023-04-01T00:08:51;99961.63;;;7.35;72.57
46045;BME280;31781;54.094;13.428;2023-04-01T00:10:55;99963.72;;;7.33;72.34
46045;BME280;31781;54.094;13.428;2023-04-01T00:12:56;99969.31;;;7.32;72.46
46045;BME280;31781;54.094;13.428;2023-04-01T00:14:59;99975.16;;;7.29;73.41
46045;BME280;31781;54.094;13.428;2023-04-01T00:17:03;99968.31;;;7.26;72.85
46045;BME280;31781;54.094;13.428;2023-04-01T00:19:05;99970.16;;;7.26;72.99
46045;BME280;31781;54.094;13.428;2023-04-01T00:21:07;99970.34;;;7.24;73.68
46045;BME280;31781;54.094;13.428;2023-04-01T00:23:09;99978.69;;;7.23;72.99
46045;BME280;31781;54.094;13.428;2023-04-01T00:25:10;99973.47;;;7.21;72.79
46045;BME280;31781;54.094;13.428;2023-04-01T00:27:14;99975.34;;;7.21;73.48
46045;BME280;31781;54.094;13.428;2023-04-01T00:29:16;99971.00;;;7.20;73.09
46045;BME280;31781;54.094;13.428;2023-04-01T00:31:17;99981.00;;;7.19;72.98
46045;BME280;31781;54.094;13.428;2023-04-01T00:33:19;99975.78;;;7.18;72.94
46045;BME280;31781;54.094;13.428;2023-04-01T00:35:21;99984.09;;;7.16;72.93
46045;BME280;31781;54.094;13.428;2023-04-01T00:37:23;99984.31;;;7.15;73.01
46045;BME280;31781;54.094;13.428;2023-04-01T00:39:24;99988.25;;;7.12;73.30
46045;BME280;31781;54.094;13.428;2023-04-01T00:41:26;99983.03;;;7.11;73.70
46045;BME280;31781;54.094;13.428;2023-04-01T00:43:29;99987.00;;;7.08;73.22
46045;BME280;31781;54.094;13.428;2023-04-01T00:45:33;99988.88;;;7.08;73.37
46045;BME280;31781;54.094;13.428;2023-04-01T00:47:36;99986.34;;;7.06;73.39
46045;BME280;31781;54.094;13.428;2023-04-01T00:49:39;99990.97;;;7.06;73.39
46045;BME280;31781;54.094;13.428;2023-04-01T00:51:45;99978.66;;;7.03;73.72
46045;BME280;31781;54.094;13.428;2023-04-01T00:53:49;99982.63;;;7.01;73.82
46045;BME280;31781;54.094;13.428;2023-04-01T00:55:57;99993.22;;;7.02;72.46
46045;BME280;31781;54.094;13.428;2023-04-01T00:58:03;99990.06;;;6.99;73.69
46045;BME280;31781;54.094;13.428;2023-04-01T01:00:11;99990.50;;;6.96;73.66
46045;BME280;31781;54.094;13.428;2023-04-01T01:02:15;99989.03;;;6.93;73.36
46045;BME280;31781;54.094;13.428;2023-04-01T01:04:22;99989.03;;;6.93;73.21
46045;BME280;31781;54.094;13.428;2023-04-01T01:06:38;99991.94;;;6.92;73.44
46045;BME280;31781;54.094;13.428;2023-04-01T01:08:56;99994.63;;;6.92;72.79
46045;BME280;31781;54.094;13.428;2023-04-01T01:11:05;99994.03;;;6.90;74.05
46045;BME280;31781;54.094;13.428;2023-04-01T01:13:11;99998.59;;;6.89;74.64
46045;BME280;31781;54.094;13.428;2023-04-01T01:15:20;99996.72;;;6.90;73.36
46045;BME280;31781;54.094;13.428;2023-04-01T01:17:34;99991.50;;;6.88;73.15
46045;BME280;31781;54.094;13.428;2023-04-01T01:19:52;99989.66;;;6.89;73.09
46045;BME280;31781;54.094;13.428;2023-04-01T01:22:18;99999.44;;;6.90;72.85
46045;BME280;31781;54.094;13.428;2023-04-01T01:24:48;99993.19;;;6.89;72.77
46045;BME280;31781;54.094;13.428;2023-04-01T01:26:59;99998.16;;;6.85;73.57
46045;BME280;31781;54.094;13.428;2023-04-01T01:29:07;99999.19;;;6.84;73.60
46045;BME280;31781;54.094;13.428;2023-04-01T01:31:17;99998.34;;;6.84;73.82
46045;BME280;31781;54.094;13.428;2023-04-01T01:33:35;100000.25;;;6.83;72.69
46045;BME280;31781;54.094;13.428;2023-04-01T01:35:45;100002.50;;;6.80;74.07
46045;BME280;31781;54.094;13.428;2023-04-01T01:37:52;100004.59;;;6.78;74.66
46045;BME280;31781;54.094;13.428;2023-04-01T01:39:59;100010.00;;;6.78;74.18
46045;BME280;31781;54.094;13.428;2023-04-01T01:42:05;100010.00;;;6.78;74.29
46045;BME280;31781;54.094;13.428;2023-04-01T01:44:13;100014.56;;;6.77;74.57
46045;BME280;31781;54.094;13.428;2023-04-01T01:46:18;100021.00;;;6.76;73.97
46045;BME280;31781;54.094;13.428;2023-04-01T01:48:23;100015.81;;;6.75;73.99
46045;BME280;31781;54.094;13.428;2023-04-01T01:50:27;100011.44;;;6.74;74.15
46045;BME280;31781;54.094;13.428;2023-04-01T01:52:33;100017.06;;;6.72;74.31
46045;BME280;31781;54.094;13.428;2023-04-01T01:54:35;100018.09;;;6.71;74.81
46045;BME280;31781;54.094;13.428;2023-04-01T01:56:38;100014.53;;;6.71;74.36
46045;BME280;31781;54.094;13.428;2023-04-01T01:58:43;100018.28;;;6.70;74.03
46045;BME280;31781;54.094;13.428;2023-04-01T02:00:50;100018.50;;;6.68;74.34
46045;BME280;31781;54.094;13.428;2023-04-01T02:02:54;100018.69;;;6.67;73.70
46045;BME280;31781;54.094;13.428;2023-04-01T02:04:58;100011.59;;;6.66;74.00
46045;BME280;31781;54.094;13.428;2023-04-01T02:07:02;100013.47;;;6.65;74.32
46045;BME280;31781;54.094;13.428;2023-04-01T02:09:08;100014.53;;;6.64;74.50
46045;BME280;31781;54.094;13.428;2023-04-01T02:11:15;100013.69;;;6.64;74.87
46045;BME280;31781;54.094;13.428;2023-04-01T02:13:21;100021.78;;;6.64;74.46
46045;BME280;31781;54.094;13.428;2023-04-01T02:15:31;100010.34;;;6.62;74.35
46045;BME280;31781;54.094;13.428;2023-04-01T02:17:38;100021.97;;;6.62;73.37
46045;BME280;31781;54.094;13.428;2023-04-01T02:19:45;100025.09;;;6.59;74.14
46045;BME280;31781;54.094;13.428;2023-04-01T02:21:51;100020.28;;;6.55;74.29
46045;BME280;31781;54.094;13.428;2023-04-01T02:23:56;100027.38;;;6.56;74.34
46045;BME280;31781;54.094;13.428;2023-04-01T02:26:01;100039.41;;;6.53;73.74
46045;BME280;31781;54.094;13.428;2023-04-01T02:28:04;100034.19;;;6.52;74.46
46045;BME280;31781;54.094;13.428;2023-04-01T02:30:08;100033.38;;;6.51;73.95
46045;BME280;31781;54.094;13.428;2023-04-01T02:32:10;100036.28;;;6.50;74.45
46045;BME280;31781;54.094;13.428;2023-04-01T02:34:12;100040.84;;;6.49;74.52
46045;BME280;31781;54.094;13.428;2023-04-01T02:36:16;100041.88;;;6.48;74.26
46045;BME280;31781;54.094;13.428;2023-04-01T02:38:18;100049.16;;;6.48;74.84
46045;BME280;31781;54.094;13.428;2023-04-01T02:40:20;100048.31;;;6.47;75.14
46045;BME280;31781;54.094;13.428;2023-04-01T02:42:23;100053.94;;;6.46;74.76
46045;BME280;31781;54.094;13.428;2023-04-01T02:44:25;100061.00;;;6.47;74.33
46045;BME280;31781;54.094;13.428;2023-04-01T02:46:27;100062.22;;;6.44;74.60
46045;BME280;31781;54.094;13.428;2023-04-01T02:48:29;100066.78;;;6.44;74.79
46045;BME280;31781;54.094;13.428;2023-04-01T02:50:31;100062.22;;;6.44;74.19
46045;BME280;31781;54.094;13.428;2023-04-01T02:52:33;100071.34;;;6.43;74.22
46045;BME280;31781;54.094;13.428;2023-04-01T02:54:36;100063.47;;;6.42;74.21
46045;BME280;31781;54.094;13.428;2023-04-01T02:56:37;100069.91;;;6.41;74.38
46045;BME280;31781;54.094;13.428;2023-04-01T02:58:41;100069.91;;;6.41;74.47
46045;BME280;31781;54.094;13.428;2023-04-01T03:00:42;100075.28;;;6.41;75.30
46045;BME280;31781;54.094;13.428;2023-04-01T03:02:44;100079.84;;;6.40;74.84
46045;BME280;31781;54.094;13.428;2023-04-01T03:04:46;100077.16;;;6.40;74.89
46045;BME280;31781;54.094;13.428;2023-04-01T03:06:48;100078.00;;;6.41;74.58
46045;BME280;31781;54.094;13.428;2023-04-01T03:08:50;100078.00;;;6.41;74.27
46045;BME280;31781;54.094;13.428;2023-04-01T03:10:51;100070.72;;;6.41;74.62
46045;BME280;31781;54.094;13.428;2023-04-01T03:12:53;100084.25;;;6.41;74.30
46045;BME280;31781;54.094;13.428;2023-04-01T03:14:56;100088.81;;;6.41;74.61
46045;BME280;31781;54.094;13.428;2023-04-01T03:17:11;100086.31;;;6.39;74.69
46045;BME280;31781;54.094;13.428;2023-04-01T03:19:13;100095.22;;;6.40;74.36
46045;BME280;31781;54.094;13.428;2023-04-01T03:21:16;100090.03;;;6.38;74.37
46045;BME280;31781;54.094;13.428;2023-04-01T03:23:19;100097.31;;;6.38;74.00
46045;BME280;31781;54.094;13.428;2023-04-01T03:25:21;100090.03;;;6.38;74.63
46045;BME280;31781;54.094;13.428;2023-04-01T03:27:23;100097.31;;;6.38;74.65
46045;BME280;31781;54.094;13.428;2023-04-01T03:29:26;100094.00;;;6.35;74.60
46045;BME280;31781;54.094;13.428;2023-04-01T03:31:29;100097.50;;;6.36;75.19
46045;BME280;31781;54.094;13.428;2023-04-01T03:33:31;100100.19;;;6.36;74.48
46045;BME280;31781;54.094;13.428;2023-04-01T03:35:33;100093.16;;;6.35;74.48
46045;BME280;31781;54.094;13.428;2023-04-01T03:37:35;100099.41;;;6.35;74.83
46045;BME280;31781;54.094;13.428;2023-04-01T03:39:37;100097.72;;;6.34;74.52
46045;BME280;31781;54.094;13.428;2023-04-01T03:41:38;100096.88;;;6.34;74.68
46045;BME280;31781;54.094;13.428;2023-04-01T03:43:40;100109.53;;;6.33;74.39
46045;BME280;31781;54.094;13.428;2023-04-01T03:45:43;100104.13;;;6.33;74.52
46045;BME280;31781;54.094;13.428;2023-04-01T03:47:47;100110.38;;;6.34;74.93
46045;BME280;31781;54.094;13.428;2023-04-01T03:49:49;100115.97;;;6.32;75.53
46045;BME280;31781;54.094;13.428;2023-04-01T03:51:51;100114.09;;;6.33;74.83
46045;BME280;31781;54.094;13.428;2023-04-01T03:53:53;100116.81;;;6.33;75.03
46045;BME280;31781;54.094;13.428;2023-04-01T03:55:55;100111.63;;;6.31;74.98
46045;BME280;31781;54.094;13.428;2023-04-01T03:57:57;100116.19;;;6.31;74.96
46045;BME280;31781;54.094;13.428;2023-04-01T03:59:58;100119.91;;;6.30;74.59
46045;BME280;31781;54.094;13.428;2023-04-01T04:02:00;100120.09;;;6.28;74.83
46045;BME280;31781;54.094;13.428;2023-04-01T04:04:03;100129.03;;;6.29;75.34
46045;BME280;31781;54.094;13.428;2023-04-01T04:06:10;100136.97;;;6.30;75.25
46045;BME280;31781;54.094;13.428;2023-04-01T04:08:12;100114.69;;;6.28;75.32
46045;BME280;31781;54.094;13.428;2023-04-01T04:10:17;100122.00;;;6.28;75.24
46045;BME280;31781;54.094;13.428;2023-04-01T04:12:19;100129.03;;;6.29;75.01
46045;BME280;31781;54.094;13.428;2023-04-01T04:14:22;100132.78;;;6.28;74.76
46045;BME280;31781;54.094;13.428;2023-04-01T04:16:24;100127.38;;;6.28;74.60
46045;BME280;31781;54.094;13.428;2023-04-01T04:18:25;100132.78;;;6.28;74.64
46045;BME280;31781;54.094;13.428;2023-04-01T04:20:28;100140.06;;;6.27;74.85
46045;BME280;31781;54.094;13.428;2023-04-01T04:22:30;100132.13;;;6.26;75.12
46045;BME280;31781;54.094;13.428;2023-04-01T04:24:33;100133.16;;;6.25;75.21
46045;BME280;31781;54.094;13.428;2023-04-01T04:26:35;100145.66;;;6.26;75.34
46045;BME280;31781;54.094;13.428;2023-04-01T04:28:38;100140.25;;;6.26;75.36
46045;BME280;31781;54.094;13.428;2023-04-01T04:30:40;100141.09;;;6.26;74.93
46045;BME280;31781;54.094;13.428;2023-04-01T04:32:42;100147.31;;;6.27;74.92
46045;BME280;31781;54.094;13.428;2023-04-01T04:34:44;100148.16;;;6.27;75.10
46045;BME280;31781;54.094;13.428;2023-04-01T04:36:46;100160.84;;;6.27;75.22
46045;BME280;31781;54.094;13.428;2023-04-01T04:38:48;100152.06;;;6.25;74.57
46045;BME280;31781;54.094;13.428;2023-04-01T04:40:50;100152.91;;;6.25;75.11
46045;BME280;31781;54.094;13.428;2023-04-01T04:42:52;100157.47;;;6.25;74.61
46045;BME280;31781;54.094;13.428;2023-04-01T04:44:54;100160.19;;;6.25;74.39
46045;BME280;31781;54.094;13.428;2023-04-01T04:46:55;100172.88;;;6.24;74.97
46045;BME280;31781;54.094;13.428;2023-04-01T04:48:59;100160.56;;;6.22;74.77
46045;BME280;31781;54.094;13.428;2023-04-01T04:51:01;100165.97;;;6.22;74.48
46045;BME280;31781;54.094;13.428;2023-04-01T04:53:04;100174.06;;;6.22;74.90
46045;BME280;31781;54.094;13.428;2023-04-01T04:55:07;100169.69;;;6.21;75.52
46045;BME280;31781;54.094;13.428;2023-04-01T04:57:09;100168.88;;;6.20;75.25
46045;BME280;31781;54.094;13.428;2023-04-01T04:59:11;100177.81;;;6.21;75.31
46045;BME280;31781;54.094;13.428;2023-04-01T05:01:14;100174.28;;;6.20;74.54
46045;BME280;31781;54.094;13.428;2023-04-01T05:03:16;100177.81;;;6.21;75.14
46045;BME280;31781;54.094;13.428;2023-04-01T05:05:18;100181.56;;;6.20;75.24
46045;BME280;31781;54.094;13.428;2023-04-01T05:07:20;100180.72;;;6.19;74.86
46045;BME280;31781;54.094;13.428;2023-04-01T05:09:24;100181.56;;;6.20;75.36
46045;BME280;31781;54.094;13.428;2023-04-01T05:11:25;100183.41;;;6.19;74.92
46045;BME280;31781;54.094;13.428;2023-04-01T05:13:27;100188.59;;;6.21;75.14
46045;BME280;31781;54.094;13.428;2023-04-01T05:15:29;100186.97;;;6.20;75.54
46045;BME280;31781;54.094;13.428;2023-04-01T05:17:31;100188.59;;;6.21;75.59
46045;BME280;31781;54.094;13.428;2023-04-01T05:19:33;100186.97;;;6.20;75.70
46045;BME280;31781;54.094;13.428;2023-04-01T05:21:35;100190.50;;;6.20;75.80
46045;BME280;31781;54.094;13.428;2023-04-01T05:23:37;100196.91;;;6.19;75.03
46045;BME280;31781;54.094;13.428;2023-04-01T05:25:40;100195.06;;;6.20;75.29
46045;BME280;31781;54.094;13.428;2023-04-01T05:27:42;100199.81;;;6.18;74.81
46045;BME280;31781;54.094;13.428;2023-04-01T05:29:44;100203.34;;;6.18;74.92
46045;BME280;31781;54.094;13.428;2023-04-01T05:31:46;100198.97;;;6.17;75.26
46045;BME280;31781;54.094;13.428;2023-04-01T05:33:47;100200.00;;;6.16;75.73
46045;BME280;31781;54.094;13.428;2023-04-01T05:35:49;100207.28;;;6.16;74.61
46045;BME280;31781;54.094;13.428;2023-04-01T05:37:51;100197.50;;;6.15;75.88
46045;BME280;31781;54.094;13.428;2023-04-01T05:39:53;100207.47;;;6.14;75.94
46045;BME280;31781;54.094;13.428;2023-04-01T05:41:57;100213.69;;;6.15;75.56
46045;BME280;31781;54.094;13.428;2023-04-01T05:43:59;100216.41;;;6.15;75.25
46045;BME280;31781;54.094;13.428;2023-04-01T05:46:00;100214.72;;;6.14;75.24
46045;BME280;31781;54.094;13.428;2023-04-01T05:48:02;100220.97;;;6.14;75.27
46045;BME280;31781;54.094;13.428;2023-04-01T05:50:04;100213.91;;;6.13;75.24
46045;BME280;31781;54.094;13.428;2023-04-01T05:52:06;100226.59;;;6.13;75.65
46045;BME280;31781;54.094;13.428;2023-04-01T05:54:08;100225.75;;;6.12;75.52
46045;BME280;31781;54.094;13.428;2023-04-01T05:56:10;100226.75;;;6.11;75.58
46045;BME280;31781;54.094;13.428;2023-04-01T05:58:16;100232.16;;;6.11;75.36
46045;BME280;31781;54.094;13.428;2023-04-01T06:00:18;100231.13;;;6.12;74.89
46045;BME280;31781;54.094;13.428;2023-04-01T06:02:20;100235.88;;;6.10;74.73
46045;BME280;31781;54.094;13.428;2023-04-01T06:04:22;100238.59;;;6.10;75.26
46045;BME280;31781;54.094;13.428;2023-04-01T06:06:25;100238.59;;;6.10;76.05
46045;BME280;31781;54.094;13.428;2023-04-01T06:08:29;100243.97;;;6.10;75.00
46045;BME280;31781;54.094;13.428;2023-04-01T06:10:38;100235.69;;;6.12;75.18
46045;BME280;31781;54.094;13.428;2023-04-01T06:12:51;100238.41;;;6.12;74.50
46045;BME280;31781;54.094;13.428;2023-04-01T06:15:06;100241.28;;;6.10;74.39
46045;BME280;31781;54.094;13.428;2023-04-01T06:17:24;100240.44;;;6.10;75.08
46045;BME280;31781;54.094;13.428;2023-04-01T06:19:36;100248.53;;;6.10;74.35
46045;BME280;31781;54.094;13.428;2023-04-01T06:24:30;100253.75;;;6.11;74.84
46045;BME280;31781;54.094;13.428;2023-04-01T06:26:44;100255.44;;;6.12;74.86
46045;BME280;31781;54.094;13.428;2023-04-01T06:28:59;100259.16;;;6.11;75.12
46045;BME280;31781;54.094;13.428;2023-04-01T06:31:16;100262.72;;;6.12;75.24
46045;BME280;31781;54.094;13.428;2023-04-01T06:33:35;100267.94;;;6.13;74.59
46045;BME280;31781;54.094;13.428;2023-04-01T06:35:54;100271.44;;;6.14;74.12
46045;BME280;31781;54.094;13.428;2023-04-01T06:38:20;100264.19;;;6.14;73.66
46045;BME280;31781;54.094;13.428;2023-04-01T06:41:00;100276.84;;;6.14;74.09
46045;BME280;31781;54.094;13.428;2023-04-01T06:43:14;100273.50;;;6.12;74.56
46045;BME280;31781;54.094;13.428;2023-04-01T06:45:29;100273.50;;;6.12;73.92
46045;BME280;31781;54.094;13.428;2023-04-01T06:47:46;100274.53;;;6.11;74.94
46045;BME280;31781;54.094;13.428;2023-04-01T06:49:56;100288.88;;;6.11;75.08
46045;BME280;31781;54.094;13.428;2023-04-01T06:52:11;100288.88;;;6.11;74.93
46045;BME280;31781;54.094;13.428;2023-04-01T06:54:20;100286.34;;;6.10;75.00
46045;BME280;31781;54.094;13.428;2023-04-01T06:56:25;100288.25;;;6.09;74.65
46045;BME280;31781;54.094;13.428;2023-04-01T06:58:33;100296.34;;;6.09;74.98
46045;BME280;31781;54.094;13.428;2023-04-01T07:00:39;100304.25;;;6.11;75.07
46045;BME280;31781;54.094;13.428;2023-04-01T07:02:49;100302.56;;;6.10;75.20
46045;BME280;31781;54.094;13.428;2023-04-01T07:04:53;100300.06;;;6.08;75.35
46045;BME280;31781;54.094;13.428;2023-04-01T07:06:59;100309.84;;;6.09;75.14
46045;BME280;31781;54.094;13.428;2023-04-01T07:09:05;100306.31;;;6.09;74.75
46045;BME280;31781;54.094;13.428;2023-04-01T07:11:10;100321.00;;;6.06;74.35
46045;BME280;31781;54.094;13.428;2023-04-01T07:13:17;100313.13;;;6.05;75.19
46045;BME280;31781;54.094;13.428;2023-04-01T07:15:24;100323.25;;;6.03;75.15
46045;BME280;31781;54.094;13.428;2023-04-01T07:17:28;100322.44;;;6.02;74.99
46045;BME280;31781;54.094;13.428;2023-04-01T07:19:39;100323.47;;;6.01;74.36
46045;BME280;31781;54.094;13.428;2023-04-01T07:21:48;100321.97;;;5.99;75.31
46045;BME280;31781;54.094;13.428;2023-04-01T07:23:50;100330.28;;;5.97;75.06
46045;BME280;31781;54.094;13.428;2023-04-01T07:25:56;100330.28;;;5.97;75.46
46045;BME280;31781;54.094;13.428;2023-04-01T07:28:02;100333.97;;;5.96;74.55
46045;BME280;31781;54.094;13.428;2023-04-01T07:30:13;100341.91;;;5.98;74.95
46045;BME280;31781;54.094;13.428;2023-04-01T07:32:27;100342.94;;;5.97;74.50
46045;BME280;31781;54.094;13.428;2023-04-01T07:34:38;100339.38;;;5.96;74.53
46045;BME280;31781;54.094;13.428;2023-04-01T07:36:45;100345.81;;;5.95;74.38
46045;BME280;31781;54.094;13.428;2023-04-01T07:39:00;100351.03;;;5.97;73.74
46045;BME280;31781;54.094;13.428;2023-04-01T07:41:13;100350.41;;;5.95;74.09
46045;BME280;31781;54.094;13.428;2023-04-01T07:43:26;100355.78;;;5.95;75.03
46045;BME280;31781;54.094;13.428;2023-04-01T07:45:38;100352.25;;;5.94;74.26
46045;BME280;31781;54.094;13.428;2023-04-01T07:47:57;100370.94;;;5.96;74.44
46045;BME280;31781;54.094;13.428;2023-04-01T07:50:12;100364.91;;;5.94;74.65
46045;BME280;31781;54.094;13.428;2023-04-01T07:52:24;100372.34;;;5.92;74.11
46045;BME280;31781;54.094;13.428;2023-04-01T07:54:38;100378.41;;;5.94;74.23
46045;BME280;31781;54.094;13.428;2023-04-01T07:56:48;100382.34;;;5.91;74.17
46045;BME280;31781;54.094;13.428;2023-04-01T07:59:01;100391.91;;;5.94;73.83
46045;BME280;31781;54.094;13.428;2023-04-01T08:01:13;100387.53;;;5.93;74.31
46045;BME280;31781;54.094;13.428;2023-04-01T08:03:30;100378.97;;;5.89;74.36
46045;BME280;31781;54.094;13.428;2023-04-01T08:05:40;100385.38;;;5.88;74.28
46045;BME280;31781;54.094;13.428;2023-04-01T08:07:53;100392.66;;;5.87;74.38
46045;BME280;31781;54.094;13.428;2023-04-01T08:10:05;100398.25;;;5.86;74.27
46045;BME280;31781;54.094;13.428;2023-04-01T08:12:20;100390.50;;;5.83;74.71
46045;BME280;31781;54.094;13.428;2023-04-01T08:14:30;100398.59;;;5.83;74.89
46045;BME280;31781;54.094;13.428;2023-04-01T08:16:41;100406.88;;;5.81;74.55
46045;BME280;31781;54.094;13.428;2023-04-01T08:18:54;100401.28;;;5.83;74.45
46045;BME280;31781;54.094;13.428;2023-04-01T08:21:07;100398.59;;;5.83;74.50
46045;BME280;31781;54.094;13.428;2023-04-01T08:23:15;100407.72;;;5.82;74.53
46045;BME280;31781;54.094;13.428;2023-04-01T08:25:20;100414.97;;;5.81;75.31
46045;BME280;31781;54.094;13.428;2023-04-01T08:27:28;100428.28;;;5.83;74.96
46045;BME280;31781;54.094;13.428;2023-04-01T08:29:38;100421.03;;;5.83;74.72
46045;BME280;31781;54.094;13.428;2023-04-01T08:31:48;100422.91;;;5.83;73.98
46045;BME280;31781;54.094;13.428;2023-04-01T08:33:53;100435.56;;;5.82;74.36
46045;BME280;31781;54.094;13.428;2023-04-01T08:35:59;100432.00;;;5.82;74.30
46045;BME280;31781;54.094;13.428;2023-04-01T08:38:11;100426.59;;;5.82;74.34
46045;BME280;31781;54.094;13.428;2023-04-01T08:40:34;100438.25;;;5.82;74.32
46045;BME280;31781;54.094;13.428;2023-04-01T08:42:55;100434.53;;;5.83;74.23
46045;BME280;31781;54.094;13.428;2023-04-01T08:45:13;100435.34;;;5.84;74.01
46045;BME280;31781;54.094;13.428;2023-04-01T08:47:33;100442.44;;;5.85;74.01
46045;BME280;31781;54.094;13.428;2023-04-01T08:49:56;100454.06;;;5.85;73.50
46045;BME280;31781;54.094;13.428;2023-04-01T08:52:22;100437.88;;;5.85;73.56
46045;BME280;31781;54.094;13.428;2023-04-01T08:54:46;100445.97;;;5.85;74.07
46045;BME280;31781;54.094;13.428;2023-04-01T08:57:00;100446.16;;;5.84;74.55
46045;BME280;31781;54.094;13.428;2023-04-01T08:59:19;100451.38;;;5.85;73.61
46045;BME280;31781;54.094;13.428;2023-04-01T09:01:36;100446.84;;;5.86;74.02
46045;BME280;31781;54.094;13.428;2023-04-01T09:03:56;100459.47;;;5.85;73.85
46045;BME280;31781;54.094;13.428;2023-04-01T09:06:21;100452.88;;;5.88;73.41
46045;BME280;31781;54.094;13.428;2023-04-01T09:08:34;100448.31;;;5.88;73.60
46045;BME280;31781;54.094;13.428;2023-04-01T09:10:50;100459.34;;;5.87;73.40
46045;BME280;31781;54.094;13.428;2023-04-01T09:13:08;100463.69;;;5.88;72.97
46045;BME280;31781;54.094;13.428;2023-04-01T09:15:36;100472.84;;;5.87;72.97
46045;BME280;31781;54.094;13.428;2023-04-01T09:17:55;100466.59;;;5.86;74.18
46045;BME280;31781;54.094;13.428;2023-04-01T09:20:19;100480.94;;;5.87;73.91
46045;BME280;31781;54.094;13.428;2023-04-01T09:22:41;100487.34;;;5.86;74.00
46045;BME280;31781;54.094;13.428;2023-04-01T09:25:01;100495.25;;;5.87;73.37
46045;BME280;31781;54.094;13.428;2023-04-01T09:27:25;100492.53;;;5.87;73.00
46045;BME280;31781;54.094;13.428;2023-04-01T09:29:48;100503.53;;;5.86;73.22
46045;BME280;31781;54.094;13.428;2023-04-01T09:32:13;100509.94;;;5.85;73.74
46045;BME280;31781;54.094;13.428;2023-04-01T09:34:30;100510.78;;;5.85;73.86
46045;BME280;31781;54.094;13.428;2023-04-01T09:36:44;100515.31;;;5.85;73.72
46045;BME280;31781;54.094;13.428;2023-04-01T09:38:56;100510.94;;;5.84;73.87
46045;BME280;31781;54.094;13.428;2023-04-01T09:41:02;100517.19;;;5.84;73.50
46045;BME280;31781;54.094;13.428;2023-04-01T09:43:25;100518.72;;;5.87;72.85
46045;BME280;31781;54.094;13.428;2023-04-01T09:45:37;100526.00;;;5.86;73.11
46045;BME280;31781;54.094;13.428;2023-04-01T09:47:52;100526.84;;;5.87;73.06
46045;BME280;31781;54.094;13.428;2023-04-01T09:50:20;100525.78;;;5.88;72.81
46045;BME280;31781;54.094;13.428;2023-04-01T09:52:34;100531.19;;;5.88;72.29
46045;BME280;31781;54.094;13.428;2023-04-01T09:54:55;100542.84;;;5.88;72.64
46045;BME280;31781;54.094;13.428;2023-04-01T10:00:02;100540.81;;;5.91;71.82
46045;BME280;31781;54.094;13.428;2023-04-01T10:02:36;100550.56;;;5.92;72.08
46045;BME280;31781;54.094;13.428;2023-04-01T10:13:17;100558.31;;;5.95;71.36
46045;BME280;31781;54.094;13.428;2023-04-01T10:18:37;100560.34;;;5.93;71.59
46045;BME280;31781;54.094;13.428;2023-04-01T10:20:57;100568.66;;;5.91;71.13
46045;BME280;31781;54.094;13.428;2023-04-01T10:23:19;100563.25;;;5.91;71.88
46045;BME280;31781;54.094;13.428;2023-04-01T10:25:42;100570.13;;;5.94;71.81
46045;BME280;31781;54.094;13.428;2023-04-01T10:28:10;100569.94;;;5.95;71.63
46045;BME280;31781;54.094;13.428;2023-04-01T10:30:49;100568.91;;;5.96;71.56
46045;BME280;31781;54.094;13.428;2023-04-01T10:33:12;100571.44;;;5.98;71.30
46045;BME280;31781;54.094;13.428;2023-04-01T10:35:35;100573.94;;;5.99;71.30
46045;BME280;31781;54.094;13.428;2023-04-01T10:38:05;100577.50;;;6.00;71.20
46045;BME280;31781;54.094;13.428;2023-04-01T10:40:53;100587.91;;;6.03;70.78
46045;BME280;31781;54.094;13.428;2023-04-01T10:43:45;100590.44;;;6.04;70.63
46045;BME280;31781;54.094;13.428;2023-04-01T10:49:23;100586.91;;;6.04;70.40
46045;BME280;31781;54.094;13.428;2023-04-01T10:54:20;100593.31;;;6.03;71.16
46045;BME280;31781;54.094;13.428;2023-04-01T10:56:58;100590.63;;;6.03;70.62
46045;BME280;31781;54.094;13.428;2023-04-01T10:59:28;100602.63;;;6.00;70.51
46045;BME280;31781;54.094;13.428;2023-04-01T11:01:51;100607.03;;;6.01;70.58
46045;BME280;31781;54.094;13.428;2023-04-01T11:07:20;100597.72;;;6.04;70.63
46045;BME280;31781;54.094;13.428;2023-04-01T11:09:49;100611.03;;;6.05;70.26
46045;BME280;31781;54.094;13.428;2023-04-01T11:17:30;100618.94;;;6.07;69.77
46045;BME280;31781;54.094;13.428;2023-04-01T11:20:18;100625.19;;;6.07;70.36
46045;BME280;31781;54.094;13.428;2023-04-01T11:22:43;100628.72;;;6.08;70.15
46045;BME280;31781;54.094;13.428;2023-04-01T11:25:10;100624.34;;;6.07;70.54
46045;BME280;31781;54.094;13.428;2023-04-01T11:27:29;100638.69;;;6.07;69.75
46045;BME280;31781;54.094;13.428;2023-04-01T11:30:02;100630.59;;;6.07;69.87
46045;BME280;31781;54.094;13.428;2023-04-01T11:32:24;100648.66;;;6.07;70.19
46045;BME280;31781;54.094;13.428;2023-04-01T11:34:43;100638.69;;;6.07;70.11
46045;BME280;31781;54.094;13.428;2023-04-01T11:36:55;100650.34;;;6.08;70.15
46045;BME280;31781;54.094;13.428;2023-04-01T11:39:15;100645.94;;;6.07;70.23
46045;BME280;31781;54.094;13.428;2023-04-01T11:41:26;100655.75;;;6.08;69.77
46045;BME280;31781;54.094;13.428;2023-04-01T11:43:39;100661.31;;;6.06;69.57
46045;BME280;31781;54.094;13.428;2023-04-01T11:45:51;100652.19;;;6.07;70.45
46045;BME280;31781;54.094;13.428;2023-04-01T11:48:09;100658.44;;;6.08;69.88